Time;durP1;ratioP1;P1;durP2;ratioP2;P2;SDS_P1;SDS_P2;PMS_P1;PMS_P2;Temp;Humidity;BMP_temperature;BMP_pressure;BME280_temperature;BME280_humidity;BME280_pressure;Samples;Min_cycle;Max_cycle;Signal;HPM_P1;HPM_P2
2022/02/22 00:01:27;;;;;;;5.18;1.60;;;;;;;3.17;100.00;96691.53;5034721;28;20045;-66
2022/02/22 00:03:52;;;;;;;2.72;1.27;;;;;;;3.10;100.00;96681.19;5031389;28;20056;-66
2022/02/22 00:06:18;;;;;;;5.90;2.17;;;;;;;3.13;100.00;96683.25;5036545;28;20041;-65
2022/02/22 00:08:43;;;;;;;4.97;1.58;;;;;;;3.17;100.00;96691.53;5054268;28;20132;-65
2022/02/22 00:11:08;;;;;;;5.28;1.65;;;;;;;3.27;100.00;96676.88;5041744;28;20037;-64
2022/02/22 00:13:34;;;;;;;3.92;1.90;;;;;;;3.17;100.00;96675.28;5043016;28;20126;-65
2022/02/22 00:16:00;;;;;;;3.55;1.77;;;;;;;3.15;100.00;96683.75;5034506;28;20514;-65
2022/02/22 00:18:27;;;;;;;3.25;1.48;;;;;;;3.16;100.00;96689.94;5028149;28;20581;-65
2022/02/22 00:20:53;;;;;;;3.20;1.30;;;;;;;3.19;100.00;96679.28;5033915;28;20049;-64
2022/02/22 00:23:19;;;;;;;2.65;1.60;;;;;;;3.16;100.00;96688.03;5038295;28;20040;-63
2022/02/22 00:25:44;;;;;;;3.40;1.20;;;;;;;3.19;100.00;96681.97;5043864;28;20401;-64
2022/02/22 00:28:09;;;;;;;4.88;1.70;;;;;;;3.13;100.00;96695.97;5041024;28;20142;-66
2022/02/22 00:30:35;;;;;;;5.97;1.60;;;;;;;3.17;100.00;96689.63;5044282;28;20029;-66
2022/02/22 00:33:00;;;;;;;6.00;1.50;;;;;;;3.17;100.00;96703.16;5044244;28;20106;-67
2022/02/22 00:35:26;;;;;;;3.45;1.50;;;;;;;3.24;100.00;96706.19;5033506;28;20049;-66
2022/02/22 00:37:51;;;;;;;4.97;2.10;;;;;;;3.25;100.00;96715.88;5040116;28;20084;-65
2022/02/22 00:40:17;;;;;;;2.78;1.40;;;;;;;3.23;100.00;96712.69;5037702;28;20041;-66
2022/02/22 00:42:43;;;;;;;7.22;1.65;;;;;;;3.26;100.00;96714.00;5043501;28;20068;-66
2022/02/22 00:45:09;;;;;;;5.15;1.80;;;;;;;3.23;100.00;96715.41;5030027;28;20057;-66
2022/02/22 00:47:35;;;;;;;5.57;1.80;;;;;;;3.23;100.00;96714.63;5043575;28;20128;-66
2022/02/22 00:50:01;;;;;;;4.65;1.55;;;;;;;3.28;100.00;96713.66;5042952;28;20119;-65
2022/02/22 00:52:28;;;;;;;6.15;2.05;;;;;;;3.20;100.00;96715.25;5031322;28;20044;-65
2022/02/22 00:54:53;;;;;;;4.68;1.38;;;;;;;3.21;100.00;96714.94;5044336;28;20067;-66
2022/02/22 00:57:19;;;;;;;4.32;1.58;;;;;;;3.26;100.00;96716.69;5037112;28;20123;-65
2022/02/22 00:59:44;;;;;;;6.97;2.00;;;;;;;3.28;100.00;96717.19;5037288;28;20049;-65
2022/02/22 01:02:10;;;;;;;2.92;1.38;;;;;;;3.32;100.00;96736.28;5036800;28;20493;-66
2022/02/22 01:04:35;;;;;;;5.15;1.50;;;;;;;3.34;100.00;96724.00;5043565;28;20072;-67
2022/02/22 01:07:01;;;;;;;5.35;1.50;;;;;;;3.29;100.00;96724.16;5035585;28;20482;-67
2022/02/22 01:09:26;;;;;;;12.20;1.73;;;;;;;3.34;100.00;96723.22;5036141;28;20042;-67
2022/02/22 01:11:51;;;;;;;6.68;1.58;;;;;;;3.41;100.00;96728.97;5035522;28;20049;-66
2022/02/22 01:14:17;;;;;;;3.92;1.33;;;;;;;3.31;100.00;96721.94;5038672;28;20107;-64
2022/02/22 01:16:42;;;;;;;4.68;1.35;;;;;;;3.30;100.00;96723.06;5043456;28;20045;-64
2022/02/22 01:19:08;;;;;;;4.43;1.38;;;;;;;3.24;100.00;96730.56;5038472;28;20590;-65
2022/02/22 01:21:35;;;;;;;4.30;1.50;;;;;;;3.23;100.00;96731.66;5043648;28;20068;-65
2022/02/22 01:24:02;;;;;;;4.55;1.42;;;;;;;3.24;100.00;96713.50;5042839;28;20064;-65
2022/02/22 01:26:28;;;;;;;6.88;1.10;;;;;;;3.25;100.00;96718.59;5036099;28;20506;-66
2022/02/22 01:28:53;;;;;;;7.45;1.45;;;;;;;3.27;100.00;96717.50;5023266;28;20045;-64
2022/02/22 01:31:19;;;;;;;4.45;1.40;;;;;;;3.29;100.00;96718.75;5018827;28;20041;-65
2022/02/22 01:33:44;;;;;;;7.75;1.77;;;;;;;3.35;100.00;96720.19;5035540;28;20132;-66
2022/02/22 01:36:09;;;;;;;3.78;1.17;;;;;;;3.38;100.00;96724.16;5029229;28;20040;-66
2022/02/22 01:38:35;;;;;;;4.53;1.50;;;;;;;3.40;100.00;96730.88;5043664;28;20394;-65
2022/02/22 01:41:00;;;;;;;3.22;1.20;;;;;;;3.42;100.00;96733.25;5042777;28;20559;-66
2022/02/22 01:43:26;;;;;;;3.15;1.45;;;;;;;3.38;100.00;96743.13;5038056;28;20490;-65
2022/02/22 01:45:52;;;;;;;5.28;1.52;;;;;;;3.39;100.00;96759.06;5042684;28;20049;-65
2022/02/22 01:48:17;;;;;;;4.82;1.75;;;;;;;3.37;100.00;96760.50;5035856;28;20497;-66
2022/02/22 01:50:43;;;;;;;5.07;1.80;;;;;;;3.36;100.00;96767.00;5037088;28;20041;-66
2022/02/22 01:53:09;;;;;;;5.30;1.50;;;;;;;3.31;100.00;96756.34;5038349;28;20413;-64
2022/02/22 01:55:36;;;;;;;3.08;0.95;;;;;;;3.33;100.00;96762.22;5043495;28;20136;-65
2022/02/22 01:58:03;;;;;;;11.27;1.83;;;;;;;3.32;100.00;96766.84;5041439;28;20417;-64
2022/02/22 02:00:28;;;;;;;4.38;0.95;;;;;;;3.36;100.00;96775.13;5040598;28;20498;-65
2022/02/22 02:02:55;;;;;;;3.70;1.70;;;;;;;3.34;100.00;96774.66;5042891;28;20102;-64
2022/02/22 02:05:21;;;;;;;9.35;3.70;;;;;;;3.45;100.00;96773.22;5029723;28;20067;-64
2022/02/22 02:07:46;;;;;;;7.43;1.80;;;;;;;3.40;100.00;96771.50;5042930;28;20045;-66
2022/02/22 02:10:12;;;;;;;8.35;1.90;;;;;;;3.41;100.00;96780.41;5034255;28;20446;-65
2022/02/22 02:12:39;;;;;;;5.88;1.65;;;;;;;3.39;100.00;96786.13;5037054;28;20038;-68
2022/02/22 02:15:05;;;;;;;3.83;1.52;;;;;;;3.34;100.00;96797.09;5032289;28;20037;-63
2022/02/22 02:17:34;;;;;;;6.00;1.92;;;;;;;3.37;100.00;96782.16;5034533;28;20045;-65
2022/02/22 02:20:04;;;;;;;6.78;1.77;;;;;;;3.37;100.00;96790.28;5042270;28;20404;-64
2022/02/22 02:22:29;;;;;;;5.25;1.70;;;;;;;3.35;100.00;96787.06;5041036;28;20048;-65
2022/02/22 02:24:55;;;;;;;10.85;3.42;;;;;;;3.27;100.00;96790.59;5041162;28;20045;-65
2022/02/22 02:27:20;;;;;;;8.88;1.70;;;;;;;3.31;100.00;96789.63;5034318;28;20513;-65
2022/02/22 02:29:46;;;;;;;7.00;1.42;;;;;;;3.30;100.00;96790.75;5035016;28;20045;-65
2022/02/22 02:32:11;;;;;;;6.15;2.03;;;;;;;3.34;100.00;96797.09;5017329;28;20080;-63
2022/02/22 02:34:37;;;;;;;8.10;1.98;;;;;;;3.28;100.00;96803.81;5021793;28;20092;-66
2022/02/22 02:37:02;;;;;;;7.22;1.70;;;;;;;3.39;100.00;96805.09;5033375;28;20049;-64
2022/02/22 02:39:28;;;;;;;5.28;1.50;;;;;;;3.39;100.00;96807.78;5030886;28;20053;-66
2022/02/22 02:41:54;;;;;;;5.97;1.02;;;;;;;3.38;100.00;96816.22;5041468;28;20120;-65
2022/02/22 02:44:21;;;;;;;5.78;1.67;;;;;;;3.42;100.00;96819.88;5043953;28;20049;-66
2022/02/22 02:46:48;;;;;;;5.32;1.40;;;;;;;3.42;100.00;96819.88;5047800;28;20072;-65
2022/02/22 02:49:14;;;;;;;4.65;1.27;;;;;;;3.45;100.00;96824.66;5040582;28;20386;-66
2022/02/22 02:51:41;;;;;;;4.63;1.48;;;;;;;3.44;100.00;96817.69;5040090;28;20051;-64
2022/02/22 02:54:08;;;;;;;3.17;0.88;;;;;;;3.40;100.00;96822.94;5028641;28;20482;-64
2022/02/22 02:56:34;;;;;;;4.75;1.30;;;;;;;3.36;100.00;96818.47;5041348;28;20068;-65
2022/02/22 02:59:02;;;;;;;5.45;1.30;;;;;;;3.23;100.00;96820.19;5038927;28;20052;-65
2022/02/22 03:01:30;;;;;;;4.70;1.70;;;;;;;3.12;100.00;96822.41;5018082;28;20471;-65
2022/02/22 03:03:56;;;;;;;6.15;1.45;;;;;;;3.09;100.00;96825.72;5021764;28;20475;-66
2022/02/22 03:06:22;;;;;;;7.25;1.77;;;;;;;3.11;100.00;96834.31;5017017;28;20489;-65
2022/02/22 03:08:47;;;;;;;10.07;1.90;;;;;;;3.14;100.00;96830.19;5021954;28;20049;-65
2022/02/22 03:11:13;;;;;;;7.88;1.85;;;;;;;3.10;100.00;96823.81;5018785;28;20037;-65
2022/02/22 03:13:39;;;;;;;7.32;1.65;;;;;;;3.16;100.00;96834.19;5032717;28;20060;-65
2022/02/22 03:16:05;;;;;;;7.25;1.80;;;;;;;3.14;100.00;96828.28;5027638;28;20409;-63
2022/02/22 03:18:31;;;;;;;4.15;1.52;;;;;;;3.10;100.00;96840.03;5041447;28;20074;-64
2022/02/22 03:20:56;;;;;;;5.63;1.85;;;;;;;3.09;100.00;96825.72;5039988;28;20136;-64
2022/02/22 03:23:22;;;;;;;11.75;2.50;;;;;;;3.13;100.00;96842.13;5034871;28;20815;-65
2022/02/22 03:25:49;;;;;;;9.98;1.77;;;;;;;3.19;100.00;96835.47;5031383;28;20073;-65
2022/02/22 03:28:14;;;;;;;6.30;1.70;;;;;;;3.28;100.00;96847.13;5026903;28;20395;-65
2022/02/22 03:30:40;;;;;;;4.78;1.60;;;;;;;3.24;100.00;96844.25;5021743;28;20041;-65
2022/02/22 03:33:08;;;;;;;7.68;1.75;;;;;;;3.30;100.00;96852.22;5016926;28;20073;-64
2022/02/22 03:35:34;;;;;;;4.53;1.45;;;;;;;3.33;100.00;96862.41;5049783;28;20041;-64
2022/02/22 03:37:59;;;;;;;4.43;1.40;;;;;;;3.34;100.00;96864.00;5040946;28;20418;-64
2022/02/22 03:40:25;;;;;;;4.97;1.20;;;;;;;3.37;100.00;96866.88;5028658;28;20041;-66
2022/02/22 03:42:50;;;;;;;5.70;2.20;;;;;;;3.30;100.00;96877.38;5041664;28;20496;-65
2022/02/22 03:45:17;;;;;;;6.90;2.00;;;;;;;3.35;100.00;96877.22;5035330;28;20065;-65
2022/02/22 03:47:43;;;;;;;6.75;1.58;;;;;;;3.37;100.00;96895.88;5034536;28;20048;-66
2022/02/22 03:50:10;;;;;;;4.43;1.55;;;;;;;3.30;100.00;96904.44;5033529;28;20055;-66
2022/02/22 03:52:38;;;;;;;7.88;1.42;;;;;;;3.31;100.00;96907.94;5039426;28;20049;-66
2022/02/22 03:55:06;;;;;;;3.85;1.50;;;;;;;3.22;100.00;96902.50;5026016;28;20160;-64
2022/02/22 03:57:31;;;;;;;6.63;1.60;;;;;;;3.23;100.00;96915.72;5040813;28;20563;-66
2022/02/22 03:59:57;;;;;;;10.68;1.85;;;;;;;3.23;100.00;96918.44;5040852;28;20057;-65
2022/02/22 04:02:22;;;;;;;4.90;1.80;;;;;;;3.19;100.00;96925.59;5039000;28;20945;-65
2022/02/22 04:04:48;;;;;;;6.82;1.80;;;;;;;3.21;100.00;96920.66;5025731;28;20510;-66
2022/02/22 04:07:14;;;;;;;6.40;1.70;;;;;;;3.19;100.00;96938.34;5015655;28;20401;-65
2022/02/22 04:09:39;;;;;;;5.57;1.50;;;;;;;3.33;100.00;96939.03;5021985;28;20041;-65
2022/02/22 04:12:05;;;;;;;6.05;1.63;;;;;;;3.29;100.00;96945.34;5016819;28;20461;-65
2022/02/22 04:14:30;;;;;;;5.35;1.40;;;;;;;3.47;100.00;96959.75;5020963;28;20041;-66
2022/02/22 04:16:56;;;;;;;4.47;1.42;;;;;;;3.51;100.00;96958.81;5031305;28;20043;-66
2022/02/22 04:19:21;;;;;;;5.72;1.52;;;;;;;3.54;100.00;96957.38;5027428;28;20591;-66
2022/02/22 04:21:47;;;;;;;7.25;1.48;;;;;;;3.59;100.00;96966.16;5039921;28;20033;-67
2022/02/22 04:24:12;;;;;;;5.30;1.65;;;;;;;3.73;100.00;96971.47;5027041;28;20429;-66
2022/02/22 04:26:38;;;;;;;6.20;1.58;;;;;;;3.70;100.00;96965.88;5040763;28;20045;-67
2022/02/22 04:29:03;;;;;;;3.25;1.30;;;;;;;3.61;100.00;96971.28;5036865;28;20044;-63
2022/02/22 04:31:47;;;;;;;7.55;1.83;;;;;;;3.42;100.00;96974.22;5034546;28;20080;-64
2022/02/22 04:34:13;;;;;;;4.13;1.40;;;;;;;3.25;100.00;96975.75;5033434;28;20037;-65
2022/02/22 04:36:38;;;;;;;7.72;1.60;;;;;;;3.19;100.00;96976.22;5040278;28;20048;-67
2022/02/22 04:39:05;;;;;;;4.53;1.45;;;;;;;3.21;100.00;96982.13;5036991;28;20045;-64
2022/02/22 04:41:31;;;;;;;5.40;1.80;;;;;;;3.36;100.00;96981.69;5039407;28;20055;-65
2022/02/22 04:43:57;;;;;;;3.95;1.70;;;;;;;3.27;100.00;96980.06;5038150;28;20509;-65
2022/02/22 04:46:23;;;;;;;6.03;1.92;;;;;;;3.36;100.00;96980.91;5031122;28;20813;-65
2022/02/22 04:48:48;;;;;;;8.82;2.28;;;;;;;3.30;100.00;96990.28;5020200;28;20493;-66
2022/02/22 04:51:14;;;;;;;9.65;2.00;;;;;;;3.35;100.00;97003.66;5015120;28;20088;-65
2022/02/22 04:53:40;;;;;;;8.55;1.80;;;;;;;3.39;100.00;97002.75;5019742;28;20188;-66
2022/02/22 04:56:05;;;;;;;6.97;1.80;;;;;;;3.32;100.00;97004.31;5015374;28;20049;-66
2022/02/22 04:58:31;;;;;;;7.53;3.10;;;;;;;3.37;100.00;97006.88;5034456;28;20135;-65
2022/02/22 05:00:56;;;;;;;10.48;4.07;;;;;;;3.42;100.00;97009.44;5035119;28;20091;-65
2022/02/22 05:03:22;;;;;;;9.10;2.40;;;;;;;3.28;100.00;97003.31;5038569;28;21048;-66
2022/02/22 05:05:49;;;;;;;6.82;1.80;;;;;;;3.15;100.00;97013.94;5043787;28;20106;-66
2022/02/22 05:08:17;;;;;;;6.72;2.20;;;;;;;3.13;100.00;97015.34;5039395;28;20063;-66
2022/02/22 05:10:43;;;;;;;6.25;2.03;;;;;;;3.07;100.00;97014.69;5044183;28;20041;-65
2022/02/22 05:13:08;;;;;;;11.27;3.35;;;;;;;3.13;100.00;97023.47;5036689;28;20413;-65
2022/02/22 05:15:34;;;;;;;15.63;6.05;;;;;;;3.19;100.00;97022.25;5044687;28;20053;-66
2022/02/22 05:18:00;;;;;;;12.00;3.72;;;;;;;3.06;100.00;97021.19;5023737;28;20558;-66
2022/02/22 05:20:26;;;;;;;16.40;4.43;;;;;;;2.93;100.00;97024.78;5018695;28;20449;-67
2022/02/22 05:22:52;;;;;;;5.45;2.75;;;;;;;2.94;100.00;97040.72;5036271;28;20045;-65
2022/02/22 05:25:17;;;;;;;5.28;1.92;;;;;;;2.98;100.00;97041.69;5037680;28;20067;-66
2022/02/22 05:27:43;;;;;;;7.70;1.95;;;;;;;2.95;100.00;97050.41;5041945;28;20041;-66
2022/02/22 05:30:14;;;;;;;9.18;2.40;;;;;;;2.91;100.00;97062.97;5028933;28;20091;-66
2022/02/22 05:32:40;;;;;;;10.68;2.30;;;;;;;2.94;100.00;97065.06;5044047;28;20041;-67
2022/02/22 05:35:07;;;;;;;5.55;2.05;;;;;;;2.97;100.00;97071.75;5039022;28;20037;-65
2022/02/22 05:37:34;;;;;;;9.95;2.38;;;;;;;2.94;100.00;97075.09;5043799;28;20059;-65
2022/02/22 05:40:01;;;;;;;6.03;2.15;;;;;;;3.02;100.00;97069.72;5045447;28;20055;-66
2022/02/22 05:42:28;;;;;;;12.68;2.55;;;;;;;3.05;100.00;97073.72;5048045;28;20076;-65
2022/02/22 05:44:55;;;;;;;14.07;3.70;;;;;;;3.04;100.00;97080.25;5052437;28;20075;-65
2022/02/22 05:47:20;;;;;;;10.90;2.40;;;;;;;3.11;100.00;97071.69;5040860;28;20125;-65
2022/02/22 05:49:47;;;;;;;7.35;2.63;;;;;;;3.04;100.00;97067.53;5043490;28;20526;-64
2022/02/22 05:52:13;;;;;;;6.15;2.60;;;;;;;3.06;100.00;97067.19;5036353;28;20036;-65
2022/02/22 05:54:39;;;;;;;5.07;2.00;;;;;;;3.09;100.00;97073.91;5040101;28;20037;-64
2022/02/22 05:57:05;;;;;;;8.43;2.20;;;;;;;3.22;100.00;97078.44;5038891;28;20493;-63
2022/02/22 05:59:31;;;;;;;5.93;1.83;;;;;;;3.17;100.00;97078.56;5034338;28;20107;-65
2022/02/22 06:01:56;;;;;;;7.75;2.00;;;;;;;3.12;100.00;97089.53;5041630;28;20041;-65
2022/02/22 06:04:22;;;;;;;6.43;2.63;;;;;;;3.13;100.00;97081.09;5029766;28;20060;-66
2022/02/22 06:06:48;;;;;;;7.45;2.08;;;;;;;3.06;100.00;97095.06;5043396;28;20048;-66
2022/02/22 06:09:13;;;;;;;11.80;2.45;;;;;;;3.06;100.00;97108.59;5032383;28;20045;-64
2022/02/22 06:11:38;;;;;;;9.98;2.60;;;;;;;2.98;100.00;97100.44;5032500;28;20548;-66
2022/02/22 06:14:04;;;;;;;9.75;2.30;;;;;;;3.03;100.00;97111.13;5035085;28;20132;-64
2022/02/22 06:16:31;;;;;;;11.82;2.35;;;;;;;3.06;100.00;97121.31;5042715;28;20044;-67
2022/02/22 06:18:56;;;;;;;8.88;2.40;;;;;;;3.21;100.00;97115.56;5042158;28;20049;-66
2022/02/22 06:21:22;;;;;;;7.90;3.13;;;;;;;3.24;100.00;97120.34;5037282;28;20045;-66
2022/02/22 06:23:48;;;;;;;11.48;2.72;;;;;;;3.16;100.00;97123.78;5022229;28;20559;-66
2022/02/22 06:26:13;;;;;;;9.93;2.50;;;;;;;3.14;100.00;97127.94;5028836;28;20136;-67
2022/02/22 06:28:39;;;;;;;7.00;2.50;;;;;;;3.14;100.00;97133.34;5041660;28;20140;-67
2022/02/22 06:31:06;;;;;;;6.00;2.30;;;;;;;3.18;100.00;97126.97;5030365;28;20041;-62
2022/02/22 06:33:32;;;;;;;12.00;2.38;;;;;;;3.27;100.00;97132.47;5042525;28;20122;-67
2022/02/22 06:35:57;;;;;;;9.32;3.13;;;;;;;3.19;100.00;97131.31;5041355;28;20044;-67
2022/02/22 06:38:22;;;;;;;9.00;2.65;;;;;;;3.34;100.00;97142.88;5037195;28;20777;-67
2022/02/22 06:40:48;;;;;;;9.65;2.80;;;;;;;3.29;100.00;97140.28;5041546;28;20044;-67
2022/02/22 06:43:13;;;;;;;9.70;2.65;;;;;;;3.28;100.00;97150.31;5036634;28;20045;-67
2022/02/22 06:45:39;;;;;;;5.90;2.65;;;;;;;3.23;100.00;97150.44;5034411;28;20053;-66
2022/02/22 06:48:05;;;;;;;12.55;3.00;;;;;;;3.43;100.00;97149.13;5032582;28;20073;-65
2022/02/22 06:50:30;;;;;;;11.38;3.55;;;;;;;3.46;100.00;97153.94;5032813;28;20472;-65
2022/02/22 06:52:56;;;;;;;8.23;2.80;;;;;;;3.54;100.00;97160.50;5032567;28;20045;-65
2022/02/22 06:55:21;;;;;;;13.18;3.15;;;;;;;3.47;100.00;97163.66;5036097;28;21439;-64
2022/02/22 06:58:06;;;;;;;9.05;2.55;;;;;;;3.41;100.00;97170.31;5043018;28;20402;-65
2022/02/22 07:00:37;;;;;;;9.77;3.20;;;;;;;3.35;100.00;97174.22;5035598;28;20057;-65
2022/02/22 07:03:04;;;;;;;7.43;2.67;;;;;;;3.42;100.00;97178.13;5034647;28;20044;-65
2022/02/22 07:05:30;;;;;;;6.00;2.80;;;;;;;3.35;100.00;97177.75;5031954;28;20041;-66
2022/02/22 07:07:57;;;;;;;7.35;2.55;;;;;;;3.49;100.00;97190.44;5043550;28;20397;-66
2022/02/22 07:10:23;;;;;;;4.22;1.92;;;;;;;3.52;100.00;97192.53;5035907;28;20512;-66
2022/02/22 07:12:48;;;;;;;6.15;2.15;;;;;;;3.58;100.00;97200.22;5039557;28;20041;-66
2022/02/22 07:15:14;;;;;;;7.63;2.50;;;;;;;3.59;100.00;97203.72;5032868;28;20136;-66
2022/02/22 07:18:13;;;;;;;6.43;2.20;;;;;;;3.70;100.00;97207.78;5033438;28;20565;-65
2022/02/22 07:20:39;;;;;;;11.93;2.33;;;;;;;3.73;100.00;97219.91;5018561;28;20049;-66
2022/02/22 07:23:05;;;;;;;6.10;2.05;;;;;;;3.88;100.00;97216.81;5035281;28;20462;-67
2022/02/22 07:25:32;;;;;;;4.90;1.77;;;;;;;3.90;100.00;97225.44;5044726;28;20052;-67
2022/02/22 07:27:59;;;;;;;6.35;1.45;;;;;;;3.93;100.00;97218.59;5044094;28;20041;-65
2022/02/22 07:30:25;;;;;;;7.70;1.85;;;;;;;3.88;100.00;97218.72;5035935;28;20552;-66
2022/02/22 07:32:55;;;;;;;4.28;1.73;;;;;;;3.77;100.00;97224.41;5024008;28;20159;-66
2022/02/22 07:35:20;;;;;;;5.45;2.45;;;;;;;3.88;100.00;97229.56;5032635;28;20401;-64
2022/02/22 07:37:46;;;;;;;4.10;1.90;;;;;;;3.98;100.00;97229.28;5028152;28;20044;-67
2022/02/22 07:40:15;;;;;;;10.57;2.65;;;;;;;4.00;100.00;97224.38;5016776;28;20718;-65
2022/02/22 07:42:41;;;;;;;11.95;2.60;;;;;;;4.14;100.00;97237.81;5022526;28;20072;-66
2022/02/22 07:45:08;;;;;;;5.53;2.20;;;;;;;4.39;100.00;97239.88;5016138;28;20093;-65
2022/02/22 07:47:34;;;;;;;6.20;2.15;;;;;;;5.06;100.00;97239.88;5033716;28;20144;-66
2022/02/22 07:49:59;;;;;;;8.07;2.47;;;;;;;4.91;100.00;97252.00;5032976;28;20509;-65
2022/02/22 07:52:26;;;;;;;7.28;2.65;;;;;;;4.91;100.00;97258.22;5037698;28;20123;-64
2022/02/22 07:54:51;;;;;;;6.10;2.38;;;;;;;4.90;100.00;97266.69;5031174;28;20037;-65
2022/02/22 07:57:17;;;;;;;9.02;2.90;;;;;;;4.98;100.00;97263.97;5014951;28;20048;-65
2022/02/22 07:59:43;;;;;;;9.65;2.38;;;;;;;4.53;100.00;97272.31;5021494;28;20045;-65
2022/02/22 08:02:08;;;;;;;9.82;2.85;;;;;;;4.37;100.00;97280.06;5030146;28;20057;-66
2022/02/22 08:04:34;;;;;;;10.88;2.33;;;;;;;4.36;100.00;97280.38;5033785;28;20068;-65
2022/02/22 08:06:59;;;;;;;6.50;2.33;;;;;;;4.33;100.00;97281.78;5038683;28;20053;-66
2022/02/22 08:09:25;;;;;;;5.43;2.50;;;;;;;4.24;100.00;97283.66;5036717;28;20052;-67
2022/02/22 08:11:51;;;;;;;9.73;3.40;;;;;;;4.32;100.00;97295.66;5041293;28;20053;-66
2022/02/22 08:14:16;;;;;;;16.33;3.03;;;;;;;4.30;100.00;97295.97;5036735;28;20037;-66
2022/02/22 08:16:42;;;;;;;11.85;2.70;;;;;;;4.26;100.00;97305.84;5039024;28;20044;-65
2022/02/22 08:19:08;;;;;;;11.73;3.63;;;;;;;4.30;100.00;97308.72;5028680;28;20132;-65
2022/02/22 08:21:34;;;;;;;11.20;2.83;;;;;;;4.41;100.00;97318.19;5040391;28;20078;-64
2022/02/22 08:23:59;;;;;;;9.40;3.08;;;;;;;4.36;100.00;97318.34;5033668;28;20037;-64
2022/02/22 08:26:25;;;;;;;12.02;2.63;;;;;;;4.33;100.00;97330.59;5032614;28;20133;-64
2022/02/22 08:28:51;;;;;;;9.18;3.17;;;;;;;4.37;100.00;97333.50;5022255;28;20128;-64
2022/02/22 08:31:16;;;;;;;13.90;3.35;;;;;;;4.44;100.00;97331.16;5016648;28;20048;-64
2022/02/22 08:33:42;;;;;;;10.70;2.90;;;;;;;4.56;100.00;97342.22;5023274;28;20040;-65
2022/02/22 08:36:10;;;;;;;9.13;2.92;;;;;;;4.62;100.00;97340.19;5022427;28;20045;-65
2022/02/22 08:38:35;;;;;;;9.25;2.72;;;;;;;4.67;100.00;97337.31;5039960;28;20443;-65
2022/02/22 08:41:01;;;;;;;10.68;3.40;;;;;;;4.89;100.00;97344.59;5026094;28;20103;-64
2022/02/22 08:43:26;;;;;;;9.00;2.58;;;;;;;5.32;100.00;97351.28;5032512;28;20076;-65
2022/02/22 08:45:51;;;;;;;9.75;2.78;;;;;;;5.43;100.00;97351.78;5024018;28;20060;-64
2022/02/22 08:48:17;;;;;;;10.95;2.53;;;;;;;5.27;100.00;97346.00;5019699;28;20133;-66
2022/02/22 08:50:42;;;;;;;7.18;2.35;;;;;;;5.42;100.00;97352.91;5024126;28;20069;-66
2022/02/22 08:53:08;;;;;;;8.27;2.15;;;;;;;5.00;100.00;97360.63;5033667;28;20397;-66
2022/02/22 08:55:34;;;;;;;8.48;1.83;;;;;;;5.04;100.00;97367.00;5033482;28;20041;-66
2022/02/22 08:58:01;;;;;;;7.63;2.50;;;;;;;4.96;100.00;97368.59;5036160;28;20164;-66
2022/02/22 09:00:27;;;;;;;11.63;2.45;;;;;;;5.03;100.00;97368.94;5039090;28;20079;-66
2022/02/22 09:02:57;;;;;;;9.48;2.67;;;;;;;4.87;100.00;97371.25;5043374;28;20045;-64
2022/02/22 09:05:27;;;;;;;12.27;2.67;;;;;;;4.78;100.00;97378.56;5029104;28;20853;-63
2022/02/22 09:07:53;;;;;;;10.23;2.33;;;;;;;4.88;100.00;97388.34;5040638;28;20045;-65
2022/02/22 09:10:20;;;;;;;9.88;2.72;;;;;;;4.79;100.00;97386.41;5027977;28;20037;-66
2022/02/22 09:12:45;;;;;;;13.45;3.38;;;;;;;4.82;100.00;97387.69;5033362;28;20037;-65
2022/02/22 09:15:12;;;;;;;9.65;2.58;;;;;;;4.85;100.00;97402.56;5029577;28;20044;-65
2022/02/22 09:17:38;;;;;;;7.25;2.80;;;;;;;5.07;100.00;97393.53;5034716;28;20037;-65
2022/02/22 09:20:06;;;;;;;6.93;2.40;;;;;;;5.01;100.00;97397.53;5027282;28;20083;-64
2022/02/22 09:22:31;;;;;;;7.60;2.33;;;;;;;5.06;100.00;97392.75;5035260;28;20041;-67
2022/02/22 09:24:57;;;;;;;16.88;3.25;;;;;;;5.09;100.00;97407.59;5029741;28;20494;-67
2022/02/22 09:27:22;;;;;;;8.57;2.40;;;;;;;5.10;100.00;97409.22;5028856;28;20914;-66
2022/02/22 09:29:47;;;;;;;14.75;4.72;;;;;;;5.03;100.00;97412.38;5031464;28;20097;-66
2022/02/22 09:32:13;;;;;;;8.88;2.60;;;;;;;5.08;100.00;97419.59;5026502;28;20049;-66
2022/02/22 09:34:40;;;;;;;13.10;3.05;;;;;;;5.11;100.00;97419.75;5031918;28;20040;-65
2022/02/22 09:37:06;;;;;;;11.05;2.88;;;;;;;5.15;100.00;97409.88;5028256;28;20029;-65
2022/02/22 09:39:34;;;;;;;7.72;2.13;;;;;;;5.34;100.00;97411.53;5033038;28;20033;-66
2022/02/22 09:42:00;;;;;;;8.15;2.40;;;;;;;5.24;100.00;97407.19;5032012;28;20045;-67
2022/02/22 09:44:25;;;;;;;13.27;3.25;;;;;;;5.43;100.00;97414.28;5028905;28;20049;-66
2022/02/22 09:46:51;;;;;;;7.78;2.08;;;;;;;5.85;100.00;97425.53;5033405;28;20037;-65
2022/02/22 09:49:17;;;;;;;11.52;2.70;;;;;;;5.88;100.00;97414.03;5028315;28;20148;-64
2022/02/22 09:51:42;;;;;;;10.23;2.78;;;;;;;5.97;100.00;97425.75;5033761;28;20102;-64
2022/02/22 09:54:08;;;;;;;13.18;2.75;;;;;;;6.33;100.00;97421.91;5025749;28;20044;-63
2022/02/22 09:56:44;;;;;;;14.20;2.70;;;;;;;6.78;97.11;97423.47;5030869;28;20486;-65
2022/02/22 09:59:10;;;;;;;6.13;2.15;;;;;;;6.91;97.18;97427.91;5025031;28;20046;-63
2022/02/22 10:01:40;;;;;;;13.60;3.20;;;;;;;7.54;90.84;97421.88;5030544;28;20056;-67
2022/02/22 10:04:07;;;;;;;12.38;2.50;;;;;;;7.55;91.50;97431.69;5027343;28;20040;-66
2022/02/22 10:06:32;;;;;;;11.85;2.08;;;;;;;7.16;93.38;97431.66;5031545;28;20144;-66
2022/02/22 10:08:58;;;;;;;10.88;2.17;;;;;;;7.27;92.52;97443.84;5033549;28;20397;-66
2022/02/22 10:11:23;;;;;;;11.23;2.63;;;;;;;6.51;95.88;97420.78;5025877;28;20520;-65
2022/02/22 10:13:49;;;;;;;8.90;2.63;;;;;;;6.27;98.77;97434.88;5032110;28;20469;-65
2022/02/22 10:16:15;;;;;;;7.05;1.80;;;;;;;6.16;99.38;97449.94;5027680;28;20099;-66
2022/02/22 10:18:51;;;;;;;7.65;2.08;;;;;;;5.95;100.00;97430.69;5030862;28;20037;-64
2022/02/22 10:21:18;;;;;;;7.95;2.80;;;;;;;6.16;99.66;97427.34;5025349;28;20510;-66
2022/02/22 10:23:44;;;;;;;13.38;2.30;;;;;;;6.68;97.11;97427.31;5031324;28;20393;-66
2022/02/22 10:26:22;;;;;;;7.47;1.50;;;;;;;7.11;95.34;97431.84;5027022;28;20516;-66
2022/02/22 10:28:47;;;;;;;8.50;1.70;;;;;;;7.11;93.41;97431.84;5031128;28;20045;-66
2022/02/22 10:31:13;;;;;;;7.72;1.55;;;;;;;6.96;95.15;97446.00;5027212;28;20045;-66
2022/02/22 10:33:44;;;;;;;6.57;1.55;;;;;;;6.84;93.64;97452.94;5032036;28;20037;-65
2022/02/22 10:36:19;;;;;;;6.32;1.45;;;;;;;6.29;96.35;97453.63;5029519;28;20053;-66
2022/02/22 10:38:46;;;;;;;5.57;1.55;;;;;;;6.22;97.94;97456.81;5033405;28;20529;-64
2022/02/22 10:41:16;;;;;;;8.80;2.22;;;;;;;6.28;97.74;97447.38;5032316;28;20044;-66
2022/02/22 10:43:53;;;;;;;4.68;1.58;;;;;;;6.11;97.44;97445.44;5029448;28;20042;-65
2022/02/22 10:46:27;;;;;;;6.00;1.80;;;;;;;6.23;97.17;97444.00;5029787;28;20421;-63
2022/02/22 10:49:04;;;;;;;8.23;1.58;;;;;;;6.19;97.01;97452.00;5041456;28;20048;-64
2022/02/22 10:51:41;;;;;;;8.32;1.42;;;;;;;6.13;95.66;97443.19;5041840;28;20432;-65
2022/02/22 10:54:15;;;;;;;6.47;1.85;;;;;;;6.21;97.37;97441.63;5037533;28;20439;-65
2022/02/22 10:56:40;;;;;;;8.23;1.52;;;;;;;6.30;97.60;97444.31;5041077;28;20403;-66
2022/02/22 10:59:06;;;;;;;4.32;1.42;;;;;;;6.16;100.00;97441.78;5039768;28;20099;-65
2022/02/22 11:01:31;;;;;;;8.65;1.90;;;;;;;6.10;100.00;97443.84;5046472;28;20041;-66
2022/02/22 11:03:57;;;;;;;5.65;1.63;;;;;;;6.12;100.00;97444.34;5044174;28;20527;-66
2022/02/22 11:06:23;;;;;;;10.88;2.00;;;;;;;6.17;100.00;97428.97;5038462;28;20730;-67
2022/02/22 11:08:55;;;;;;;9.32;1.60;;;;;;;6.06;100.00;97437.44;5042918;28;20139;-66
2022/02/22 11:11:27;;;;;;;11.02;1.73;;;;;;;6.11;99.37;97437.28;5038793;28;20155;-66
2022/02/22 11:14:02;;;;;;;8.10;2.10;;;;;;;6.17;98.40;97428.97;5024673;28;20079;-66
2022/02/22 11:16:48;;;;;;;10.38;2.05;;;;;;;6.39;97.22;97436.16;5037871;28;20048;-66
2022/02/22 11:19:16;;;;;;;18.73;4.90;;;;;;;6.82;94.37;97421.69;5019708;28;20405;-66
2022/02/22 11:21:44;;;;;;;9.40;2.30;;;;;;;6.51;93.79;97417.25;5043349;28;20510;-68
2022/02/22 11:24:10;;;;;;;7.15;2.05;;;;;;;6.59;93.33;97415.66;5039192;28;20041;-64
2022/02/22 11:26:44;;;;;;;7.80;1.80;;;;;;;6.57;94.13;97417.88;5044236;28;20575;-67
2022/02/22 11:29:10;;;;;;;12.07;2.08;;;;;;;6.58;93.21;97408.63;5037713;28;20055;-65